Time;durP1;ratioP1;P1;durP2;ratioP2;P2;SDS_P1;SDS_P2;PMS_P1;PMS_P2;Temp;Humidity;BMP_temperature;BMP_pressure;BME280_temperature;BME280_humidity;BME280_pressure;Samples;Min_cycle;Max_cycle;Signal;HPM_P1;HPM_P2
2022/06/14 00:03:00;;;;;;;4.25;2.20;;;14.50;99.90;;;;;;4994606;28;20211;-57
2022/06/14 00:05:26;;;;;;;5.13;1.80;;;14.60;99.90;;;;;;4994190;28;20172;-57
2022/06/14 00:07:51;;;;;;;4.80;2.20;;;14.60;99.90;;;;;;4994295;28;20157;-57
2022/06/14 00:10:17;;;;;;;5.00;2.25;;;14.50;99.90;;;;;;4994187;28;20623;-57
2022/06/14 00:12:43;;;;;;;5.05;1.52;;;14.60;99.90;;;;;;4994778;28;20326;-57
2022/06/14 00:15:09;;;;;;;5.35;2.10;;;14.60;99.90;;;;;;4994251;28;20196;-57
2022/06/14 00:17:35;;;;;;;5.60;1.67;;;14.60;99.90;;;;;;4994088;28;20549;-57
2022/06/14 00:20:01;;;;;;;4.18;1.60;;;14.50;99.90;;;;;;4976544;28;20208;-57
2022/06/14 00:22:27;;;;;;;4.88;1.58;;;14.50;99.90;;;;;;4994049;28;20169;-57
2022/06/14 00:24:56;;;;;;;8.23;1.63;;;14.40;99.90;;;;;;4994279;28;20176;-57
2022/06/14 00:27:21;;;;;;;5.80;1.83;;;14.40;99.90;;;;;;4993955;28;20219;-57
2022/06/14 00:29:47;;;;;;;6.47;2.10;;;14.30;99.90;;;;;;4993831;28;20537;-57
2022/06/14 00:32:13;;;;;;;6.57;1.80;;;14.30;99.90;;;;;;4994005;28;20200;-57
2022/06/14 00:34:39;;;;;;;6.97;1.90;;;14.20;99.90;;;;;;4993776;28;20165;-56
2022/06/14 00:37:05;;;;;;;3.53;1.83;;;14.20;99.90;;;;;;4993691;28;20569;-57
2022/06/14 00:39:30;;;;;;;8.10;1.70;;;14.20;99.90;;;;;;4976194;28;20215;-57
2022/06/14 00:41:56;;;;;;;6.80;1.73;;;14.20;99.90;;;;;;4993666;28;20177;-57
2022/06/14 00:44:28;;;;;;;5.50;1.88;;;14.10;99.90;;;;;;4993639;28;20638;-57
2022/06/14 00:47:13;;;;;;;3.15;1.60;;;14.10;99.90;;;;;;4993594;28;20187;-56
2022/06/14 00:49:41;;;;;;;5.10;1.70;;;14.10;99.90;;;;;;4993422;28;20235;-56
2022/06/14 00:52:16;;;;;;;6.68;1.83;;;14.10;99.90;;;;;;4993545;28;20634;-56
2022/06/14 00:54:47;;;;;;;3.88;2.10;;;14.00;99.90;;;;;;4993679;28;20200;-56
2022/06/14 00:57:23;;;;;;;9.10;2.00;;;14.10;99.90;;;;;;4993982;28;20179;-57
2022/06/14 00:59:56;;;;;;;6.95;1.90;;;14.00;99.90;;;;;;4993251;28;20200;-57
2022/06/14 01:02:25;;;;;;;8.25;2.00;;;14.10;99.90;;;;;;4993264;28;20168;-57
2022/06/14 01:04:52;;;;;;;8.70;2.22;;;14.10;99.90;;;;;;4993298;28;20165;-57
2022/06/14 01:07:31;;;;;;;5.72;1.92;;;14.00;99.90;;;;;;4993233;28;20161;-57
2022/06/14 01:10:02;;;;;;;3.90;2.08;;;14.00;99.90;;;;;;4993188;28;20203;-56
2022/06/14 01:12:33;;;;;;;10.10;2.25;;;13.90;99.90;;;;;;4993153;28;20534;-57
2022/06/14 01:15:20;;;;;;;5.00;1.92;;;13.90;99.90;;;;;;4993083;28;20653;-57
2022/06/14 01:17:53;;;;;;;3.90;1.67;;;13.80;99.90;;;;;;4992960;28;20219;-57
2022/06/14 01:20:21;;;;;;;5.28;2.25;;;13.70;99.90;;;;;;4992959;28;20200;-56
2022/06/14 01:22:47;;;;;;;3.90;1.80;;;13.70;99.90;;;;;;4992920;28;20218;-57
2022/06/14 01:25:13;;;;;;;8.05;2.22;;;13.60;99.90;;;;;;4993165;28;20701;-57
2022/06/14 01:27:41;;;;;;;9.30;3.20;;;13.50;99.90;;;;;;4993306;28;20196;-57
2022/06/14 01:30:20;;;;;;;8.60;2.00;;;13.30;99.90;;;;;;4975384;28;20698;-57
2022/06/14 01:33:11;;;;;;;7.78;2.08;;;13.50;99.90;;;;;;4993061;28;20546;-57
2022/06/14 01:35:40;;;;;;;8.43;2.20;;;13.60;99.90;;;;;;4992637;28;20543;-57
2022/06/14 01:38:09;;;;;;;13.13;3.22;;;13.40;99.90;;;;;;4992580;28;20173;-56
2022/06/14 01:40:40;;;;;;;9.10;2.78;;;13.40;99.90;;;;;;4992820;28;20263;-57
2022/06/14 01:43:18;;;;;;;7.93;2.30;;;13.30;99.90;;;;;;4992592;28;20630;-57
2022/06/14 01:45:52;;;;;;;8.38;2.58;;;13.30;99.90;;;;;;4992217;28;20215;-57
2022/06/14 01:48:25;;;;;;;8.00;2.45;;;13.30;99.90;;;;;;4992468;28;20226;-56
2022/06/14 01:54:28;;;;;;;9.65;2.17;;;13.10;99.90;;;;;;4992638;28;20175;-57
2022/06/14 01:57:14;;;;;;;7.47;2.35;;;13.10;99.90;;;;;;4992639;28;20179;-57
2022/06/14 01:59:39;;;;;;;11.02;3.05;;;13.10;99.90;;;;;;4992978;28;20212;-57
2022/06/14 02:02:49;;;;;;;7.85;2.10;;;13.00;99.90;;;;;;4992442;28;20223;-57
2022/06/14 02:05:32;;;;;;;8.10;1.88;;;12.90;99.90;;;;;;4984458;28;20533;-57
2022/06/14 02:08:10;;;;;;;20.10;2.55;;;12.90;99.90;;;;;;4992490;28;20251;-57
2022/06/14 02:11:01;;;;;;;11.10;3.05;;;12.80;99.90;;;;;;4992379;28;20199;-57
2022/06/14 02:13:34;;;;;;;8.48;2.58;;;12.80;99.90;;;;;;4992484;28;20169;-57
2022/06/14 02:16:18;;;;;;;6.28;1.95;;;12.80;99.90;;;;;;4992389;28;20165;-57
2022/06/14 02:18:55;;;;;;;7.30;2.08;;;13.00;99.90;;;;;;4992462;28;20298;-57
2022/06/14 02:21:28;;;;;;;4.05;2.10;;;13.10;99.90;;;;;;4992316;28;20196;-57
2022/06/14 02:24:11;;;;;;;8.05;2.05;;;12.90;99.90;;;;;;4992346;28;20204;-57
2022/06/14 02:26:46;;;;;;;8.40;2.58;;;12.90;99.90;;;;;;4992167;28;20165;-57
2022/06/14 02:29:21;;;;;;;6.03;2.13;;;12.90;99.90;;;;;;4992605;28;20180;-57
2022/06/14 02:31:50;;;;;;;11.32;2.13;;;12.90;99.90;;;;;;4992264;28;20169;-57
2022/06/14 02:34:38;;;;;;;5.78;2.05;;;12.90;99.90;;;;;;4992126;28;20172;-57
2022/06/14 02:37:16;;;;;;;4.72;1.80;;;12.90;99.90;;;;;;4991620;28;20566;-57
2022/06/14 02:39:47;;;;;;;8.57;2.42;;;12.90;99.90;;;;;;4974939;28;20235;-57
2022/06/14 02:42:25;;;;;;;6.70;2.30;;;12.80;99.90;;;;;;4992398;28;20169;-57
2022/06/14 02:45:09;;;;;;;7.28;2.40;;;12.80;99.90;;;;;;4992251;28;20227;-57
2022/06/14 02:47:50;;;;;;;8.50;2.28;;;12.80;99.90;;;;;;4992161;28;20161;-57
2022/06/14 02:50:25;;;;;;;8.57;2.45;;;12.80;99.90;;;;;;4991776;28;20303;-57
2022/06/14 02:53:32;;;;;;;6.88;1.95;;;12.80;99.90;;;;;;4992024;28;20180;-56
2022/06/14 02:56:12;;;;;;;6.53;2.20;;;12.80;99.90;;;;;;4992345;28;20219;-57
2022/06/14 02:59:08;;;;;;;6.93;2.40;;;12.70;99.90;;;;;;4995448;28;20563;-57
2022/06/14 03:01:45;;;;;;;8.25;2.63;;;12.60;99.90;;;;;;4995537;28;20168;-56
2022/06/14 03:04:30;;;;;;;3.85;1.77;;;12.70;99.90;;;;;;4995828;28;20168;-56
2022/06/14 03:06:59;;;;;;;6.53;2.20;;;12.60;99.90;;;;;;4995394;28;20196;-58
2022/06/14 03:09:31;;;;;;;6.13;2.65;;;12.60;99.90;;;;;;4995415;28;20179;-57
2022/06/14 03:12:08;;;;;;;4.70;2.22;;;12.60;99.90;;;;;;4995276;28;20174;-57
2022/06/14 03:15:09;;;;;;;10.15;2.88;;;12.60;99.90;;;;;;4995229;28;20211;-57
2022/06/14 03:17:55;;;;;;;4.93;2.30;;;12.60;99.90;;;;;;4935246;29;20751;-56
2022/06/14 03:20:37;;;;;;;6.80;1.90;;;12.60;99.90;;;;;;4973854;28;20316;-57
2022/06/14 03:23:21;;;;;;;10.40;2.75;;;12.60;99.90;;;;;;4995158;28;20165;-57
2022/06/14 03:26:18;;;;;;;5.53;2.30;;;12.60;99.90;;;;;;4995024;28;20634;-57
2022/06/14 03:28:53;;;;;;;9.82;2.70;;;12.50;99.90;;;;;;4993933;28;20184;-56
2022/06/14 03:31:25;;;;;;;7.88;2.55;;;12.50;99.90;;;;;;4995028;28;20648;-57
2022/06/14 03:34:00;;;;;;;7.00;2.22;;;12.60;99.90;;;;;;4995181;28;20238;-57
2022/06/14 03:36:26;;;;;;;4.40;1.90;;;12.30;99.90;;;;;;4994943;28;20579;-57
2022/06/14 03:38:59;;;;;;;6.30;2.63;;;12.30;99.90;;;;;;4994788;28;20666;-57
2022/06/14 03:41:27;;;;;;;8.05;2.70;;;12.40;99.90;;;;;;4995082;28;20181;-56
2022/06/14 03:43:57;;;;;;;4.78;2.58;;;12.50;99.90;;;;;;4994814;28;20172;-56
2022/06/14 03:46:36;;;;;;;9.75;2.90;;;12.40;99.90;;;;;;4994732;28;20173;-57
2022/06/14 03:49:23;;;;;;;6.20;2.83;;;12.30;99.90;;;;;;4994641;28;20228;-57
2022/06/14 03:52:00;;;;;;;7.28;2.85;;;12.40;99.90;;;;;;4994657;28;20636;-56
2022/06/14 03:54:44;;;;;;;7.75;2.63;;;12.40;99.90;;;;;;4994577;28;20176;-56
2022/06/14 03:57:10;;;;;;;5.40;2.17;;;12.40;99.90;;;;;;4995117;28;20203;-56
2022/06/14 04:00:00;;;;;;;7.25;2.67;;;12.40;99.90;;;;;;4994642;28;20208;-56
2022/06/14 04:02:55;;;;;;;15.55;3.17;;;12.50;99.90;;;;;;4994532;28;20570;-56
2022/06/14 04:06:09;;;;;;;7.78;2.80;;;12.60;99.90;;;;;;4994617;28;20187;-56
2022/06/14 04:08:57;;;;;;;13.02;3.05;;;12.60;99.90;;;;;;4941208;28;20205;-56
2022/06/14 04:11:56;;;;;;;6.93;2.72;;;12.50;99.90;;;;;;4994218;28;20170;-57
2022/06/14 04:15:18;;;;;;;6.50;2.70;;;12.50;99.90;;;;;;4994420;28;20215;-56
2022/06/14 04:17:47;;;;;;;5.60;2.30;;;12.50;99.90;;;;;;4976575;28;20199;-56
2022/06/14 04:20:24;;;;;;;7.57;2.72;;;12.50;99.90;;;;;;4994033;28;20240;-56
2022/06/14 04:23:12;;;;;;;8.00;3.30;;;12.50;99.90;;;;;;4994287;28;20175;-56
2022/06/14 04:25:42;;;;;;;14.57;3.55;;;12.50;99.90;;;;;;4993842;28;20513;-57
2022/06/14 04:28:30;;;;;;;6.70;2.70;;;12.60;99.90;;;;;;4994553;28;20535;-57
2022/06/14 04:31:25;;;;;;;10.13;3.38;;;12.70;99.90;;;;;;4994149;28;20173;-57
2022/06/14 04:34:02;;;;;;;10.68;3.00;;;12.80;99.90;;;;;;4966152;28;20247;-57
2022/06/14 04:36:55;;;;;;;6.97;2.75;;;13.00;99.90;;;;;;4993758;28;20174;-57
2022/06/14 04:39:35;;;;;;;12.88;2.92;;;13.10;99.90;;;;;;4985923;28;20640;-57
2022/06/14 04:42:09;;;;;;;10.35;2.92;;;13.30;99.90;;;;;;4993568;28;20650;-57
2022/06/14 04:44:37;;;;;;;9.68;2.80;;;13.40;99.90;;;;;;4993926;28;20184;-57
2022/06/14 04:47:07;;;;;;;8.30;3.13;;;13.30;99.90;;;;;;4993544;28;20165;-56
2022/06/14 04:49:42;;;;;;;13.90;2.90;;;13.50;99.90;;;;;;4993239;28;20224;-57
2022/06/14 04:52:12;;;;;;;10.45;3.17;;;13.60;99.90;;;;;;4993886;28;20204;-57
2022/06/14 04:54:46;;;;;;;10.68;3.63;;;13.80;99.90;;;;;;4993967;28;20165;-57
2022/06/14 04:57:23;;;;;;;14.13;3.28;;;13.80;99.90;;;;;;4993271;28;20183;-57
2022/06/14 05:00:09;;;;;;;10.98;3.22;;;13.70;99.90;;;;;;4993349;28;20320;-57
2022/06/14 05:02:44;;;;;;;14.88;3.80;;;13.70;99.90;;;;;;4990202;28;20173;-57
2022/06/14 05:05:31;;;;;;;12.43;3.38;;;13.60;99.90;;;;;;4993520;28;20741;-57
2022/06/14 05:08:20;;;;;;;9.48;3.83;;;13.70;99.90;;;;;;4993130;28;20638;-57
2022/06/14 05:10:52;;;;;;;11.63;3.58;;;13.90;99.90;;;;;;4993386;28;20259;-57
2022/06/14 05:13:27;;;;;;;8.50;3.17;;;14.00;99.90;;;;;;4992917;28;20522;-57
2022/06/14 05:16:07;;;;;;;10.60;3.20;;;14.00;99.90;;;;;;4993054;28;20168;-56
2022/06/14 05:18:52;;;;;;;14.25;4.22;;;14.10;99.90;;;;;;4992390;28;20203;-57
2022/06/14 05:21:28;;;;;;;8.00;3.20;;;14.20;99.90;;;;;;4992955;28;20192;-56
2022/06/14 05:23:56;;;;;;;8.80;3.20;;;14.40;99.90;;;;;;4993199;28;20168;-56
2022/06/14 05:26:47;;;;;;;10.23;3.22;;;14.50;99.90;;;;;;4992872;28;20173;-56
2022/06/14 05:29:27;;;;;;;10.75;3.50;;;14.60;99.90;;;;;;4992748;28;20228;-57
2022/06/14 05:32:02;;;;;;;5.97;3.22;;;14.60;99.90;;;;;;4992858;28;20165;-57
2022/06/14 05:34:53;;;;;;;18.15;3.95;;;14.90;99.90;;;;;;4992833;28;20174;-57
2022/06/14 05:37:26;;;;;;;13.60;3.53;;;15.10;99.90;;;;;;4975162;28;20161;-57
2022/06/14 05:40:05;;;;;;;13.48;4.50;;;14.80;99.90;;;;;;4992691;28;20224;-56
2022/06/14 05:42:39;;;;;;;14.73;4.88;;;14.90;99.90;;;;;;4992734;28;20573;-56
2022/06/14 05:45:06;;;;;;;11.18;3.72;;;15.10;99.90;;;;;;4992451;28;20533;-56
2022/06/14 05:47:37;;;;;;;11.88;4.28;;;15.20;99.90;;;;;;4992805;28;20243;-56
2022/06/14 05:50:13;;;;;;;12.48;3.97;;;15.30;99.90;;;;;;4992146;28;20292;-56
2022/06/14 05:52:51;;;;;;;12.90;5.05;;;15.40;99.90;;;;;;4992870;28;20172;-57
2022/06/14 05:55:27;;;;;;;13.38;5.03;;;15.60;99.90;;;;;;4992574;28;20183;-56
2022/06/14 05:57:57;;;;;;;9.73;4.20;;;15.40;99.90;;;;;;5002715;28;20199;-57
2022/06/14 06:00:34;;;;;;;8.98;4.90;;;15.50;99.90;;;;;;4993881;28;20750;-56
2022/06/14 06:03:06;;;;;;;11.52;4.53;;;15.60;99.90;;;;;;5011099;28;20246;-57
2022/06/14 06:05:47;;;;;;;13.85;5.65;;;15.60;99.90;;;;;;5011233;28;20204;-57
2022/06/14 06:08:33;;;;;;;14.80;4.95;;;15.80;99.90;;;;;;4993630;28;20180;-57
2022/06/14 06:11:08;;;;;;;10.57;5.43;;;15.70;99.90;;;;;;5011446;28;20175;-57
2022/06/14 06:13:49;;;;;;;8.85;4.55;;;15.80;99.90;;;;;;5011376;28;20171;-57
2022/06/14 06:16:23;;;;;;;10.75;4.53;;;16.00;99.90;;;;;;5011418;28;20163;-56
2022/06/14 06:18:58;;;;;;;13.45;4.72;;;16.00;99.90;;;;;;5011679;28;20582;-56
2022/06/14 06:21:36;;;;;;;8.48;4.80;;;16.10;99.90;;;;;;5011684;28;20164;-56
2022/06/14 06:24:11;;;;;;;17.55;5.47;;;16.00;99.90;;;;;;4996363;28;20168;-55
2022/06/14 06:26:42;;;;;;;12.98;5.55;;;16.00;99.90;;;;;;4992275;28;20715;-53
2022/06/14 06:29:48;;;;;;;10.80;4.78;;;15.80;99.90;;;;;;4992332;28;20177;-49
2022/06/14 06:32:16;;;;;;;12.07;5.10;;;16.10;99.90;;;;;;4968770;28;20184;-54
2022/06/14 06:34:42;;;;;;;9.65;5.13;;;16.30;99.90;;;;;;4995937;28;20173;-49
2022/06/14 06:37:37;;;;;;;11.85;4.72;;;16.50;99.90;;;;;;4996208;28;20177;-55
2022/06/14 06:40:15;;;;;;;11.90;4.55;;;16.50;99.90;;;;;;4977644;28;20220;-53
2022/06/14 06:43:05;;;;;;;14.70;5.18;;;16.60;99.90;;;;;;4996111;28;20223;-52
2022/06/14 06:45:38;;;;;;;11.75;5.10;;;16.50;99.90;;;;;;4995645;28;20181;-52
2022/06/14 06:48:14;;;;;;;14.10;5.30;;;16.60;99.90;;;;;;4995289;28;20661;-54
2022/06/14 06:50:51;;;;;;;11.35;4.70;;;16.80;99.90;;;;;;4995872;28;20181;-53
2022/06/14 06:53:20;;;;;;;11.30;5.40;;;16.70;99.90;;;;;;4978080;28;20606;-52
2022/06/14 06:56:08;;;;;;;10.65;4.97;;;16.80;99.90;;;;;;4995434;28;20161;-53
2022/06/14 06:58:38;;;;;;;14.93;5.25;;;16.50;99.90;;;;;;4995390;28;20228;-57
2022/06/14 07:01:34;;;;;;;15.88;5.30;;;16.40;99.90;;;;;;4995202;28;20219;-52
2022/06/14 07:07:25;;;;;;;14.75;5.15;;;16.70;99.90;;;;;;4995594;28;20602;-53
2022/06/14 07:10:01;;;;;;;11.57;5.55;;;17.10;99.90;;;;;;4978181;28;20164;-58
2022/06/14 07:12:41;;;;;;;9.57;6.05;;;17.20;99.90;;;;;;4995312;28;20176;-55
2022/06/14 07:15:30;;;;;;;11.77;5.10;;;17.10;99.90;;;;;;4995724;28;20198;-51
2022/06/14 07:17:59;;;;;;;10.90;5.25;;;17.40;99.90;;;;;;4984606;28;20180;-54
2022/06/14 07:20:44;;;;;;;12.68;5.82;;;17.40;99.90;;;;;;4995294;28;20212;-54
2022/06/14 07:23:38;;;;;;;9.90;5.00;;;17.20;99.90;;;;;;4995180;28;20523;-53
2022/06/14 07:26:13;;;;;;;13.23;5.05;;;17.30;99.90;;;;;;4994979;28;20184;-52
2022/06/14 07:28:58;;;;;;;15.43;5.65;;;17.30;99.90;;;;;;4995269;28;20656;-53
2022/06/14 07:31:33;;;;;;;13.55;4.93;;;17.60;99.90;;;;;;4994875;28;20176;-53
2022/06/14 07:34:00;;;;;;;14.95;5.30;;;17.90;99.90;;;;;;4994999;28;20251;-55
2022/06/14 07:36:30;;;;;;;7.80;5.45;;;17.90;99.90;;;;;;4961405;28;20181;-54
2022/06/14 07:39:12;;;;;;;13.93;6.47;;;17.90;99.90;;;;;;4994715;28;20287;-52
2022/06/14 07:42:01;;;;;;;10.13;4.88;;;18.00;99.90;;;;;;4994471;28;20604;-54
2022/06/14 07:44:52;;;;;;;9.10;5.38;;;18.40;99.90;;;;;;4994745;28;20540;-55
2022/06/14 07:47:38;;;;;;;10.73;5.15;;;18.20;99.90;;;;;;4994852;28;20200;-54
2022/06/14 07:50:18;;;;;;;12.07;4.85;;;18.20;99.90;;;;;;4994339;28;20238;-49
2022/06/14 07:53:02;;;;;;;13.48;4.88;;;18.20;99.90;;;;;;4994708;28;20574;-53
2022/06/14 07:55:47;;;;;;;10.63;4.63;;;18.30;99.90;;;;;;4976576;28;20535;-57
2022/06/14 07:58:22;;;;;;;13.25;5.00;;;18.50;99.90;;;;;;4994475;28;20607;-54
2022/06/14 08:01:08;;;;;;;13.23;5.63;;;18.70;99.90;;;;;;4993775;28;20259;-54
2022/06/14 08:03:58;;;;;;;10.15;5.15;;;18.80;99.90;;;;;;4994061;28;20569;-53
2022/06/14 08:06:33;;;;;;;18.05;5.07;;;18.90;99.90;;;;;;4993828;28;20570;-52
2022/06/14 08:09:27;;;;;;;11.93;4.65;;;18.80;99.90;;;;;;4994202;28;20172;-48
2022/06/14 08:11:54;;;;;;;8.52;3.95;;;18.80;99.90;;;;;;4994355;28;20255;-52
2022/06/14 08:14:43;;;;;;;13.00;4.57;;;19.10;99.90;;;;;;4992873;28;20215;-53
2022/06/14 08:17:11;;;;;;;10.50;3.80;;;19.20;99.90;;;;;;4994103;28;20164;-52
2022/06/14 08:19:54;;;;;;;7.28;3.30;;;19.40;99.90;;;;;;4994129;28;20212;-50
2022/06/14 08:22:29;;;;;;;12.48;3.38;;;19.40;99.90;;;;;;4994015;28;20204;-55
2022/06/14 08:25:00;;;;;;;9.88;3.20;;;19.40;99.90;;;;;;4992663;28;20168;-59
2022/06/14 08:27:32;;;;;;;12.85;4.20;;;19.50;99.90;;;;;;4993923;28;20251;-55
2022/06/14 08:30:04;;;;;;;8.52;3.75;;;19.50;99.90;;;;;;4994004;28;20255;-55
2022/06/14 08:32:46;;;;;;;8.60;3.75;;;19.50;99.90;;;;;;4993724;28;20183;-57
2022/06/14 08:35:21;;;;;;;11.30;3.63;;;19.40;99.90;;;;;;4993671;28;20164;-58
2022/06/14 08:38:06;;;;;;;10.90;3.85;;;19.40;99.90;;;;;;4993666;28;20199;-55
2022/06/14 08:40:44;;;;;;;7.65;3.38;;;19.40;99.90;;;;;;4993173;28;20203;-60
2022/06/14 08:43:13;;;;;;;9.20;3.83;;;19.70;99.90;;;;;;4993925;28;20172;-51
2022/06/14 08:46:08;;;;;;;12.27;4.60;;;19.70;99.90;;;;;;4993816;28;20177;-53
2022/06/14 08:48:42;;;;;;;10.38;4.10;;;19.90;99.90;;;;;;4993230;28;20759;-49
2022/06/14 08:51:33;;;;;;;10.93;4.18;;;19.90;99.90;;;;;;4993636;28;20267;-55
2022/06/14 08:54:13;;;;;;;8.88;3.58;;;19.90;99.90;;;;;;4993443;28;20181;-54
2022/06/14 08:56:53;;;;;;;7.25;3.70;;;20.00;99.90;;;;;;4993313;28;20167;-54
2022/06/14 08:59:41;;;;;;;10.52;3.92;;;19.80;99.90;;;;;;4993053;28;20204;-54
2022/06/14 09:02:39;;;;;;;6.95;3.95;;;20.10;99.90;;;;;;4993396;28;20539;-55
2022/06/14 09:05:35;;;;;;;11.77;4.60;;;20.00;99.90;;;;;;4993038;28;20176;-52
2022/06/14 09:08:07;;;;;;;10.27;3.92;;;20.00;99.90;;;;;;4992611;28;20169;-54
2022/06/14 09:10:53;;;;;;;7.10;4.05;;;20.30;99.90;;;;;;4993043;28;20164;-54
2022/06/14 09:13:49;;;;;;;10.50;3.65;;;20.20;99.90;;;;;;4992677;28;20752;-53
2022/06/14 09:16:52;;;;;;;7.45;3.35;;;20.30;99.90;;;;;;4992736;28;20173;-53
2022/06/14 09:19:23;;;;;;;9.63;3.55;;;20.50;99.90;;;;;;4992582;28;20212;-54
2022/06/14 09:22:09;;;;;;;8.93;3.83;;;20.50;99.90;;;;;;4992789;28;20196;-53
2022/06/14 09:24:56;;;;;;;9.07;3.47;;;20.40;99.90;;;;;;4992498;28;20638;-53
2022/06/14 09:28:06;;;;;;;10.00;3.90;;;20.40;99.90;;;;;;4992714;28;20169;-53
2022/06/14 09:30:45;;;;;;;12.27;4.40;;;20.30;99.90;;;;;;4991596;28;20156;-53
2022/06/14 09:33:45;;;;;;;8.60;3.53;;;20.60;99.90;;;;;;4992043;28;20177;-53
2022/06/14 09:36:36;;;;;;;13.02;3.92;;;20.70;99.90;;;;;;4992634;28;20650;-54
2022/06/14 09:39:50;;;;;;;10.02;3.33;;;20.70;99.90;;;;;;4992229;28;20546;-52
2022/06/14 09:42:48;;;;;;;8.35;2.95;;;21.10;99.90;;;;;;4939612;28;20183;-54
2022/06/14 09:45:30;;;;;;;5.38;2.83;;;21.30;99.90;;;;;;4992269;28;20172;-53
2022/06/14 09:48:15;;;;;;;9.75;2.88;;;21.30;99.90;;;;;;4992281;28;20650;-52
2022/06/14 09:50:53;;;;;;;10.10;3.38;;;20.90;99.90;;;;;;4992402;28;20185;-53
2022/06/14 09:53:24;;;;;;;10.00;3.45;;;21.10;99.90;;;;;;4991939;28;20172;-53
2022/06/14 09:56:05;;;;;;;8.48;3.20;;;21.10;99.90;;;;;;4992351;28;20165;-54
2022/06/14 09:58:44;;;;;;;6.95;3.55;;;20.70;99.90;;;;;;4992093;28;20504;-55
2022/06/14 10:01:22;;;;;;;7.32;3.38;;;20.70;99.90;;;;;;4992367;28;20220;-55
2022/06/14 10:04:22;;;;;;;7.28;3.30;;;21.10;99.90;;;;;;4992218;28;20172;-53
2022/06/14 10:07:18;;;;;;;6.57;3.30;;;21.40;99.90;;;;;;4998381;28;20169;-56
2022/06/14 10:09:49;;;;;;;11.43;3.65;;;21.30;99.90;;;;;;4998489;28;20705;-55
2022/06/14 10:12:43;;;;;;;8.07;3.88;;;21.40;99.90;;;;;;4998538;28;20176;-54
2022/06/14 10:15:16;;;;;;;9.00;4.28;;;21.20;99.90;;;;;;4996814;28;20180;-55
2022/06/14 10:18:04;;;;;;;7.53;3.80;;;21.30;99.90;;;;;;4980955;28;20188;-55
2022/06/14 10:20:55;;;;;;;8.98;3.50;;;21.60;99.90;;;;;;4998120;28;20216;-54
2022/06/14 10:23:48;;;;;;;8.00;4.07;;;21.70;99.90;;;;;;4996998;28;20191;-55
2022/06/14 10:29:26;;;;;;;8.65;3.88;;;21.90;99.90;;;;;;4998696;28;20239;-54
2022/06/14 10:32:36;;;;;;;8.23;3.65;;;21.90;99.90;;;;;;4965217;28;20168;-55
2022/06/14 10:35:19;;;;;;;8.57;3.88;;;22.00;99.90;;;;;;4961582;28;20211;-54
2022/06/14 10:38:11;;;;;;;9.95;3.55;;;22.30;99.90;;;;;;4998055;28;20395;-53
2022/06/14 10:41:01;;;;;;;7.05;3.75;;;22.30;99.90;;;;;;4998378;28;20287;-54
2022/06/14 10:43:32;;;;;;;7.75;3.50;;;22.40;99.90;;;;;;4998303;28;20176;-54
2022/06/14 10:46:28;;;;;;;8.70;4.40;;;22.40;99.90;;;;;;4998475;28;20176;-54
2022/06/14 10:49:16;;;;;;;5.18;3.60;;;22.10;99.90;;;;;;4994166;28;20282;-54
2022/06/14 10:52:09;;;;;;;10.43;4.50;;;22.10;99.90;;;;;;4998027;28;20181;-53
2022/06/14 10:54:42;;;;;;;7.03;3.03;;;22.50;99.90;;;;;;4980546;28;20180;-53
2022/06/14 10:57:40;;;;;;;9.65;3.30;;;22.60;99.90;;;;;;4998598;28;20176;-53
2022/06/14 11:00:33;;;;;;;7.60;3.50;;;22.80;99.90;;;;;;4998693;28;20323;-55
2022/06/14 11:03:20;;;;;;;11.65;4.32;;;22.40;99.90;;;;;;4988379;28;20249;-54
2022/06/14 11:05:55;;;;;;;10.43;4.22;;;22.60;99.90;;;;;;4998093;28;20172;-54
2022/06/14 11:08:39;;;;;;;10.25;4.20;;;22.60;99.90;;;;;;4998235;28;20166;-54
2022/06/14 11:11:19;;;;;;;10.38;5.85;;;22.60;99.90;;;;;;4998179;28;20176;-54
2022/06/14 11:13:54;;;;;;;34.38;23.13;;;22.50;99.90;;;;;;4980488;28;20176;-54
2022/06/14 11:16:46;;;;;;;12.85;4.25;;;22.30;99.90;;;;;;4997019;28;20171;-54
2022/06/14 11:19:34;;;;;;;8.68;3.50;;;22.40;97.90;;;;;;4995016;28;20196;-54
2022/06/14 11:22:15;;;;;;;8.77;3.50;;;22.40;95.30;;;;;;4995198;28;20177;-55
2022/06/14 11:25:01;;;;;;;8.55;3.60;;;22.80;98.40;;;;;;4993413;28;20173;-55
2022/06/14 11:27:51;;;;;;;12.45;4.00;;;22.80;99.90;;;;;;4994393;28;20223;-53
2022/06/14 11:30:46;;;;;;;8.40;3.67;;;22.90;99.60;;;;;;4993179;28;20223;-54
2022/06/14 11:33:47;;;;;;;11.35;4.47;;;23.20;98.60;;;;;;4992894;28;20215;-53
2022/06/14 11:36:35;;;;;;;8.93;4.13;;;23.30;98.50;;;;;;4994710;28;20184;-52
2022/06/14 11:39:28;;;;;;;18.25;13.48;;;23.50;96.40;;;;;;4994420;28;20243;-55
2022/06/14 11:41:54;;;;;;;8.85;4.45;;;23.40;93.60;;;;;;4994417;28;20176;-55
2022/06/14 11:44:39;;;;;;;8.70;4.60;;;23.60;92.40;;;;;;4994798;28;20177;-54
2022/06/14 11:47:44;;;;;;;9.88;3.55;;;23.40;92.80;;;;;;4994499;28;20642;-55
2022/06/14 11:50:22;;;;;;;8.52;4.47;;;23.40;92.40;;;;;;4994311;28;20219;-53
2022/06/14 11:52:56;;;;;;;13.63;5.03;;;23.50;92.60;;;;;;4994400;28;20175;-55
2022/06/14 11:55:34;;;;;;;8.20;5.90;;;23.60;94.10;;;;;;4994332;28;20178;-55
2022/06/14 11:58:25;;;;;;;10.02;3.60;;;23.30;92.90;;;;;;4994193;28;20708;-55
2022/06/14 12:01:26;;;;;;;7.07;3.75;;;23.60;92.90;;;;;;4954332;28;20203;-53
2022/06/14 12:04:27;;;;;;;19.35;12.73;;;23.40;93.10;;;;;;4980159;28;20344;-55
2022/06/14 12:07:23;;;;;;;33.70;27.40;;;23.60;92.00;;;;;;4974671;28;20590;-55
2022/06/14 12:10:26;;;;;;;7.35;3.67;;;23.90;92.50;;;;;;4956595;28;20185;-53
2022/06/14 12:13:13;;;;;;;9.75;4.65;;;24.00;92.00;;;;;;4985527;28;20645;-52
2022/06/14 12:15:58;;;;;;;6.18;3.88;;;23.90;92.10;;;;;;4994180;28;20211;-56
2022/06/14 12:18:27;;;;;;;6.40;2.95;;;24.20;92.70;;;;;;4992292;28;20169;-52
2022/06/14 12:21:03;;;;;;;7.28;3.35;;;24.20;95.00;;;;;;4993837;28;20196;-56
2022/06/14 12:23:37;;;;;;;7.38;3.20;;;24.20;93.60;;;;;;4993729;28;20211;-57
2022/06/14 12:29:20;;;;;;;7.68;3.38;;;24.10;93.10;;;;;;4993653;28;20184;-57
2022/06/14 12:32:11;;;;;;;10.05;3.95;;;24.10;95.10;;;;;;4993552;28;20164;-52
2022/06/14 12:34:40;;;;;;;10.00;3.85;;;24.20;93.00;;;;;;4994136;28;20263;-57
2022/06/14 12:37:43;;;;;;;6.65;3.30;;;24.00;92.60;;;;;;4994120;28;20177;-56
2022/06/14 12:40:27;;;;;;;6.25;2.97;;;24.00;94.00;;;;;;4951661;28;20741;-56
2022/06/14 12:43:12;;;;;;;7.07;2.90;;;24.30;93.70;;;;;;4975563;28;20694;-56
2022/06/14 12:45:49;;;;;;;6.18;3.08;;;24.20;93.90;;;;;;4993831;28;20173;-56
2022/06/14 12:48:38;;;;;;;11.50;3.30;;;24.10;92.90;;;;;;4993282;28;20224;-56
2022/06/14 12:51:26;;;;;;;4.43;2.60;;;24.10;93.20;;;;;;4993359;28;20176;-56
2022/06/14 12:53:58;;;;;;;12.00;2.90;;;24.10;93.20;;;;;;4993392;28;20181;-56
2022/06/14 12:56:36;;;;;;;11.27;3.40;;;24.30;93.50;;;;;;4993265;28;20175;-56
2022/06/14 12:59:20;;;;;;;6.68;3.03;;;24.40;93.30;;;;;;4993220;28;20208;-56
2022/06/14 13:01:58;;;;;;;6.60;2.97;;;24.40;91.90;;;;;;4993030;28;20169;-56
2022/06/14 13:05:02;;;;;;;7.30;3.00;;;24.70;90.80;;;;;;4993044;28;20582;-56
2022/06/14 13:07:30;;;;;;;7.97;2.83;;;24.80;90.60;;;;;;4952914;28;20596;-56
2022/06/14 13:10:01;;;;;;;9.18;3.00;;;24.70;90.90;;;;;;4993029;28;20179;-56
2022/06/14 13:12:41;;;;;;;7.63;2.70;;;24.70;87.80;;;;;;4993311;28;20539;-56
2022/06/14 13:15:32;;;;;;;7.15;2.83;;;24.90;90.00;;;;;;4975742;28;20574;-56
2022/06/14 13:18:06;;;;;;;9.77;2.60;;;24.70;90.20;;;;;;4992884;28;20164;-56
2022/06/14 13:20:55;;;;;;;6.70;2.35;;;24.70;90.60;;;;;;4992802;28;20203;-56
2022/06/14 13:23:45;;;;;;;7.43;2.90;;;25.10;91.00;;;;;;4992793;28;20168;-56
2022/06/14 13:26:35;;;;;;;18.13;3.22;;;24.90;90.10;;;;;;4992665;28;20623;-56
2022/06/14 13:29:28;;;;;;;6.57;2.70;;;24.70;88.10;;;;;;4992680;28;20164;-56
2022/06/14 13:32:09;;;;;;;6.18;2.53;;;25.00;82.50;;;;;;4992620;28;20164;-56
2022/06/14 13:34:53;;;;;;;9.10;2.55;;;24.90;81.30;;;;;;4992716;28;20180;-56
2022/06/14 13:37:52;;;;;;;8.40;2.72;;;24.80;81.90;;;;;;4992556;28;20165;-57
2022/06/14 13:40:32;;;;;;;7.45;2.75;;;25.10;81.10;;;;;;4992057;28;20218;-56
2022/06/14 13:43:09;;;;;;;6.82;2.38;;;25.00;77.30;;;;;;4992351;28;20167;-56
2022/06/14 13:45:40;;;;;;;4.88;2.00;;;25.20;77.20;;;;;;4992910;28;20176;-56
2022/06/14 13:48:30;;;;;;;7.38;2.45;;;25.50;76.40;;;;;;4992706;28;20700;-56
2022/06/14 13:51:17;;;;;;;10.15;2.92;;;25.50;81.40;;;;;;4974795;28;20649;-56
2022/06/14 13:53:56;;;;;;;8.05;2.67;;;25.40;83.20;;;;;;4972980;28;20176;-56
2022/06/14 13:56:28;;;;;;;8.70;3.35;;;25.30;85.70;;;;;;4992490;28;20172;-56
2022/06/14 13:59:30;;;;;;;7.50;2.65;;;25.20;84.40;;;;;;4992231;28;20196;-56
2022/06/14 14:02:05;;;;;;;10.10;2.90;;;25.20;87.60;;;;;;4951745;28;20248;-56
2022/06/14 14:04:34;;;;;;;9.93;3.28;;;25.40;86.60;;;;;;4992175;28;20176;-56
2022/06/14 14:07:25;;;;;;;7.07;2.95;;;25.40;87.40;;;;;;4992331;28;20627;-56